Adams Basin, New York
Current Conditions -  °F | °C
As of 1:54 PM on Thursday 30 Oct 2014 (Local Time) from KROC Reporting Station
Overcast Overcast  
Wind Chill: 42°   Ceiling: 4000
Heat Index: 46°   Visibility: 10mi
Dew Point: 35°   Wind: 7mph
Humidity: 66%   Direction: 310°NW
Pressure: 30.05"   Gusts: NA
Location:  43.2°N, 77.85°W
Report Text: KROC 301754Z 31006KT 10SM FEW030 OVC040 08/02 A3005 RMK AO2 RAB1655E22 SLP183 P0000 60000 T00780017 10089 20044 58006
Loading
Personal Weather Stations






























Interactive Weather Map
Tropical Storm Tracking
New forecast layout! Learn more

10-Day Weather Forecast

Advertisements
Track Severe Weather on mobile